createdAt,value
2023-02-17T00:01:23.926Z,101124.50
2023-02-17T00:03:54.537Z,101129.91
2023-02-17T00:06:26.350Z,101118.31
2023-02-17T00:08:56.366Z,101115.16
2023-02-17T00:11:25.985Z,101113.28
2023-02-17T00:13:58.598Z,101115.47
2023-02-17T00:16:29.986Z,101119.84
2023-02-17T00:19:01.745Z,101123.75
2023-02-17T00:21:33.977Z,101110.66
2023-02-17T00:24:03.484Z,101111.66
2023-02-17T00:26:32.978Z,101109.97
2023-02-17T00:29:04.949Z,101111.13
2023-02-17T00:31:34.428Z,101112.97
2023-02-17T00:34:03.904Z,101112.97
2023-02-17T00:36:33.709Z,101114.34
2023-02-17T00:39:03.195Z,101114.75
2023-02-17T00:41:32.609Z,101111.34
2023-02-17T00:44:04.914Z,101111.22
2023-02-17T00:46:34.991Z,101118.00
2023-02-17T00:49:04.338Z,101111.97
2023-02-17T00:51:33.780Z,101109.84
2023-02-17T00:54:03.119Z,101114.19
2023-02-17T00:56:32.473Z,101110.84
2023-02-17T00:59:01.813Z,101097.75
2023-02-17T01:01:34.120Z,101094.75
2023-02-17T01:04:03.956Z,101090.03
2023-02-17T01:06:36.507Z,101098.47
2023-02-17T01:09:08.295Z,101095.94
2023-02-17T01:11:39.180Z,101088.91
2023-02-17T01:14:08.975Z,101092.41
2023-02-17T01:16:42.621Z,101094.97
2023-02-17T01:19:15.678Z,101082.34
2023-02-17T01:21:45.195Z,101085.41
2023-02-17T01:24:15.502Z,101087.41
2023-02-17T01:26:45.761Z,101087.78
2023-02-17T01:29:15.181Z,101074.44
2023-02-17T01:31:49.208Z,101070.22
2023-02-17T01:34:18.576Z,101065.69
2023-02-17T01:36:47.932Z,101058.44
2023-02-17T01:39:17.958Z,101061.16
2023-02-17T01:41:49.456Z,101045.28
2023-02-17T01:44:21.829Z,101044.47
2023-02-17T01:46:55.610Z,101042.44
2023-02-17T01:49:32.075Z,101025.94
2023-02-17T01:52:08.015Z,101025.41
2023-02-17T01:54:42.817Z,101022.56
2023-02-17T01:57:14.572Z,101014.13
2023-02-17T01:59:44.473Z,101020.19
2023-02-17T02:02:17.257Z,101011.59
2023-02-17T02:04:48.646Z,101019.69
2023-02-17T02:07:22.785Z,101021.91
2023-02-17T02:09:56.133Z,101012.78
2023-02-17T02:12:28.392Z,101010.94
2023-02-17T02:15:01.319Z,101013.63
2023-02-17T02:17:43.336Z,101016.31
2023-02-17T02:24:14.710Z,101012.44
2023-02-17T02:27:25.670Z,101007.72
2023-02-17T02:30:15.796Z,101001.81
2023-02-17T02:33:09.332Z,100993.38
2023-02-17T02:35:49.860Z,100996.25
2023-02-17T02:38:23.382Z,100998.09
2023-02-17T02:40:57.394Z,100998.25
2023-02-17T02:43:28.883Z,100990.66
2023-02-17T02:45:58.325Z,100991.69
2023-02-17T02:48:30.800Z,100985.63
2023-02-17T02:51:13.347Z,100969.59
2023-02-17T02:53:45.145Z,100972.25
2023-02-17T02:56:25.744Z,100966.38
2023-02-17T02:59:03.444Z,100961.31
2023-02-17T03:01:41.938Z,100957.91
2023-02-17T03:04:20.433Z,100963.66
2023-02-17T03:06:56.294Z,100963.47
2023-02-17T03:09:28.878Z,100963.66
2023-02-17T03:11:59.820Z,100953.66
2023-02-17T03:14:31.274Z,100956.69
2023-02-17T03:17:00.968Z,100948.97
2023-02-17T03:19:33.087Z,100950.97
2023-02-17T03:22:08.463Z,100945.75
2023-02-17T03:24:38.505Z,100941.69
2023-02-17T03:27:10.286Z,100938.81
2023-02-17T03:29:39.715Z,100936.28
2023-02-17T03:32:09.901Z,100936.63
2023-02-17T03:34:41.920Z,100952.31
2023-02-17T03:37:11.380Z,100938.97
2023-02-17T03:39:40.819Z,100941.53
2023-02-17T03:42:10.495Z,100942.03
2023-02-17T03:44:39.923Z,100934.25
2023-02-17T03:47:11.008Z,100929.16
2023-02-17T03:49:43.062Z,100914.66
2023-02-17T03:52:12.992Z,100909.41
2023-02-17T03:54:42.536Z,100913.97
2023-02-17T03:57:11.985Z,100922.75
2023-02-17T03:59:41.468Z,100916.31
2023-02-17T04:02:10.918Z,100926.78
2023-02-17T04:04:42.912Z,100920.75
2023-02-17T04:07:12.306Z,100911.97
2023-02-17T04:09:41.713Z,100917.38
2023-02-17T04:12:11.099Z,100912.97
2023-02-17T04:14:40.549Z,100908.41
2023-02-17T04:17:09.971Z,100908.41
2023-02-17T04:19:39.583Z,100906.38
2023-02-17T04:22:11.534Z,100902.81
2023-02-17T04:24:41.700Z,100908.06
2023-02-17T04:27:11.603Z,100908.91
2023-02-17T04:29:41.020Z,100923.63
2023-02-17T04:32:10.493Z,100915.66
2023-02-17T04:34:40.026Z,100915.50
2023-02-17T04:37:12.065Z,100913.47
2023-02-17T04:39:41.491Z,100908.56
2023-02-17T04:42:10.851Z,100899.31
2023-02-17T04:44:40.228Z,100895.56
2023-02-17T04:47:09.645Z,100888.50
2023-02-17T04:49:39.031Z,100886.25
2023-02-17T04:52:08.590Z,100896.41
2023-02-17T04:54:40.724Z,100892.91
2023-02-17T04:57:10.093Z,100886.13
2023-02-17T04:59:39.832Z,100884.41
2023-02-17T05:02:09.280Z,100890.34
2023-02-17T05:04:38.868Z,100887.16
2023-02-17T05:07:08.288Z,100886.97
2023-02-17T05:09:41.148Z,100885.59
2023-02-17T05:12:10.744Z,100875.16
2023-02-17T05:14:40.164Z,100868.41
2023-02-17T05:17:09.546Z,100869.41
2023-02-17T05:19:38.958Z,100861.66
2023-02-17T05:22:08.421Z,100856.03
2023-02-17T05:24:40.427Z,100848.28
2023-02-17T05:27:10.608Z,100851.16
2023-02-17T05:29:40.043Z,100851.00
2023-02-17T05:32:09.539Z,100842.53
2023-02-17T05:34:39.232Z,100855.19
2023-02-17T05:37:08.711Z,100833.59
2023-02-17T05:39:40.765Z,100836.78
2023-02-17T05:42:10.600Z,100844.81
2023-02-17T05:44:40.565Z,100831.16
2023-02-17T05:47:10.049Z,100841.28
2023-02-17T05:49:39.501Z,100823.22
2023-02-17T05:52:08.889Z,100824.72
2023-02-17T05:54:40.881Z,100823.03
2023-02-17T05:57:10.333Z,100813.81
2023-02-17T05:59:39.736Z,100806.47
2023-02-17T06:02:09.143Z,100811.53
2023-02-17T06:04:38.722Z,100799.31
2023-02-17T06:07:08.156Z,100815.84
2023-02-17T06:09:37.574Z,100812.81
2023-02-17T06:12:09.776Z,100813.50
2023-02-17T06:14:39.132Z,100816.00
2023-02-17T06:17:08.579Z,100825.47
2023-02-17T06:19:37.956Z,100810.09
2023-02-17T06:22:07.424Z,100823.31
2023-02-17T06:24:36.776Z,100820.22
2023-02-17T06:27:09.074Z,100824.97
2023-02-17T06:29:38.464Z,100821.41
2023-02-17T06:32:08.262Z,100825.94
2023-02-17T06:34:37.781Z,100813.16
2023-02-17T06:37:07.203Z,100810.75
2023-02-17T06:39:36.669Z,100809.72
2023-02-17T06:42:09.040Z,100805.16
2023-02-17T06:44:38.507Z,100801.41
2023-02-17T06:47:07.914Z,100796.66
2023-02-17T06:49:39.168Z,100790.88
2023-02-17T06:52:09.890Z,100786.97
2023-02-17T06:54:39.327Z,100780.44
2023-02-17T06:57:11.357Z,100789.88
2023-02-17T06:59:40.760Z,100800.69
2023-02-17T07:02:13.090Z,100806.63
2023-02-17T07:04:42.603Z,100803.19
2023-02-17T07:07:13.390Z,100802.34
2023-02-17T07:09:43.281Z,100799.13
2023-02-17T07:12:15.283Z,100801.81
2023-02-17T07:14:44.720Z,100796.41
2023-02-17T07:17:14.142Z,100808.94
2023-02-17T07:19:43.540Z,100799.41
2023-02-17T07:22:12.981Z,100809.50
2023-02-17T07:24:42.514Z,100804.81
2023-02-17T07:27:11.978Z,100800.94
2023-02-17T07:29:44.068Z,100777.03
2023-02-17T07:32:13.460Z,100769.13
2023-02-17T07:34:42.950Z,100780.31
2023-02-17T07:37:12.603Z,100769.28
2023-02-17T07:39:42.050Z,100746.13
2023-02-17T07:42:11.911Z,100750.13
2023-02-17T07:44:44.562Z,100736.59
2023-02-17T07:47:13.996Z,100747.25
2023-02-17T07:49:43.402Z,100748.00
2023-02-17T07:52:13.024Z,100751.59
2023-02-17T07:54:42.411Z,100747.63
2023-02-17T07:57:11.857Z,100737.91
2023-02-17T07:59:43.817Z,100742.31
2023-02-17T08:02:14.696Z,100748.09
2023-02-17T08:04:44.357Z,100746.41
2023-02-17T08:07:13.897Z,100742.69
2023-02-17T08:09:55.808Z,100746.03
2023-02-17T08:12:37.814Z,100741.47
2023-02-17T08:15:12.902Z,100740.47
2023-02-17T08:17:43.208Z,100743.25
2023-02-17T08:20:15.160Z,100747.00
2023-02-17T08:22:44.702Z,100747.63
2023-02-17T08:25:14.268Z,100739.97
2023-02-17T08:27:43.758Z,100730.84
2023-02-17T08:30:16.622Z,100730.47
2023-02-17T08:32:47.828Z,100716.66
2023-02-17T08:35:19.127Z,100723.75
2023-02-17T08:37:48.571Z,100728.31
2023-02-17T08:40:18.472Z,100713.41
2023-02-17T08:42:48.370Z,100715.72
2023-02-17T08:45:20.959Z,100729.06
2023-02-17T08:47:51.080Z,100716.75
2023-02-17T08:50:20.774Z,100716.75
2023-02-17T08:52:50.198Z,100702.56
2023-02-17T08:55:20.447Z,100698.63
2023-02-17T08:57:49.925Z,100710.59
2023-02-17T09:00:22.484Z,100697.16
2023-02-17T09:02:52.473Z,100696.59
2023-02-17T09:05:22.106Z,100697.81
2023-02-17T09:07:51.480Z,100691.56
2023-02-17T09:10:21.002Z,100692.19
2023-02-17T09:12:51.935Z,100685.78
2023-02-17T09:15:23.889Z,100696.84
2023-02-17T09:17:53.324Z,100686.16
2023-02-17T09:20:25.063Z,100693.69
2023-02-17T09:22:55.479Z,100694.16
2023-02-17T09:25:24.962Z,100681.47
2023-02-17T09:27:54.500Z,100692.09
2023-02-17T09:30:26.823Z,100696.09
2023-02-17T09:32:56.309Z,100689.19
2023-02-17T09:35:25.679Z,100672.75
2023-02-17T09:37:55.656Z,100678.47
2023-02-17T09:40:30.833Z,100684.25
2023-02-17T09:43:00.221Z,100684.03
2023-02-17T09:45:37.238Z,100687.84
2023-02-17T09:48:13.874Z,100693.06
2023-02-17T09:50:48.347Z,100689.63
2023-02-17T09:53:27.562Z,100681.97
2023-02-17T09:56:00.246Z,100676.94
2023-02-17T09:58:34.160Z,100678.50
2023-02-17T10:01:12.209Z,100674.03
2023-02-17T10:03:44.205Z,100672.53
2023-02-17T10:06:18.121Z,100658.63
2023-02-17T10:08:53.931Z,100661.53
2023-02-17T10:11:30.695Z,100658.16
2023-02-17T10:14:04.665Z,100662.09
2023-02-17T10:16:41.626Z,100654.03
2023-02-17T10:19:18.606Z,100654.44
2023-02-17T10:21:53.920Z,100652.94
2023-02-17T10:24:23.557Z,100667.31
2023-02-17T10:27:06.381Z,100655.19
2023-02-17T10:29:46.512Z,100654.88
2023-02-17T10:32:25.544Z,100655.34
2023-02-17T10:35:14.234Z,100659.06
2023-02-17T10:37:49.139Z,100667.78
2023-02-17T10:40:22.823Z,100675.53
2023-02-17T10:42:54.854Z,100662.00
2023-02-17T10:45:30.902Z,100670.13
2023-02-17T10:48:08.942Z,100647.16
2023-02-17T10:50:40.613Z,100654.44
2023-02-17T10:53:17.447Z,100652.34
2023-02-17T10:55:55.844Z,100636.47
2023-02-17T10:58:31.643Z,100638.13
2023-02-17T11:01:02.708Z,100648.50
2023-02-17T11:03:37.291Z,100618.28
2023-02-17T11:06:09.459Z,100627.09
2023-02-17T11:08:43.377Z,100626.41
2023-02-17T11:11:20.217Z,100628.47
2023-02-17T11:14:04.197Z,100623.63
2023-02-17T11:16:39.630Z,100617.97
2023-02-17T11:19:25.254Z,100626.03
2023-02-17T11:21:55.990Z,100613.00
2023-02-17T11:24:25.890Z,100599.94
2023-02-17T11:27:02.124Z,100597.13
2023-02-17T11:29:34.060Z,100586.13
2023-02-17T11:32:07.536Z,100589.00
2023-02-17T11:34:41.375Z,100596.59
2023-02-17T11:37:24.526Z,100595.25
2023-02-17T11:39:56.206Z,100584.63
2023-02-17T11:42:27.660Z,100584.19
2023-02-17T11:44:59.383Z,100584.84
2023-02-17T11:47:41.671Z,100568.25
2023-02-17T11:50:40.697Z,100566.47
2023-02-17T11:53:24.382Z,100563.13
2023-02-17T11:56:07.106Z,100567.72
2023-02-17T11:58:43.071Z,100554.50
2023-02-17T12:01:24.253Z,100552.81
2023-02-17T12:04:24.298Z,100545.28
2023-02-17T12:07:14.206Z,100545.16
2023-02-17T12:09:51.614Z,100537.84
2023-02-17T12:12:29.648Z,100553.34
2023-02-17T12:15:07.328Z,100561.91
2023-02-17T12:17:45.061Z,100564.00
2023-02-17T12:20:34.323Z,100552.31
2023-02-17T12:23:20.913Z,100558.56
2023-02-17T12:25:53.412Z,100551.25
2023-02-17T12:28:43.298Z,100571.03
2023-02-17T12:31:23.117Z,100570.22
2023-02-17T12:34:05.523Z,100575.19
2023-02-17T12:36:37.557Z,100577.47
2023-02-17T12:39:16.159Z,100565.50
2023-02-17T12:41:49.878Z,100580.97
2023-02-17T12:44:24.263Z,100586.13
2023-02-17T12:46:57.999Z,100590.69
2023-02-17T12:49:34.167Z,100583.00
2023-02-17T12:52:10.937Z,100570.44
2023-02-17T12:54:47.944Z,100581.88
2023-02-17T12:57:21.468Z,100578.38
2023-02-17T12:59:53.533Z,100569.84
2023-02-17T13:02:28.777Z,100565.44
2023-02-17T13:05:03.921Z,100582.13
2023-02-17T13:07:47.050Z,100578.56
2023-02-17T13:10:36.900Z,100572.06
2023-02-17T13:13:10.110Z,100564.34
2023-02-17T13:15:42.975Z,100569.34
2023-02-17T13:18:17.215Z,100578.31
2023-02-17T13:21:17.217Z,100601.25
2023-02-17T13:23:48.643Z,100600.16
2023-02-17T13:26:31.510Z,100602.47
2023-02-17T13:29:22.005Z,100613.31
2023-02-17T13:31:55.445Z,100621.47
2023-02-17T13:34:34.892Z,100634.16
2023-02-17T13:37:17.107Z,100643.28
2023-02-17T13:39:47.420Z,100630.00
2023-02-17T13:42:38.696Z,100646.25
2023-02-17T13:45:17.643Z,100647.03
2023-02-17T13:47:50.160Z,100651.28
2023-02-17T13:50:33.669Z,100648.56
2023-02-17T13:53:04.878Z,100656.00
2023-02-17T13:55:34.347Z,100653.59
2023-02-17T13:58:06.433Z,100664.22
2023-02-17T14:00:36.281Z,100645.44
2023-02-17T14:03:18.706Z,100662.97
2023-02-17T14:05:49.729Z,100653.44
2023-02-17T14:08:24.366Z,100652.59
2023-02-17T14:10:53.981Z,100624.66
2023-02-17T14:13:27.409Z,100638.25
2023-02-17T14:15:59.048Z,100640.44
2023-02-17T14:18:33.379Z,100649.22
2023-02-17T14:21:05.421Z,100657.84
2023-02-17T14:23:48.372Z,100661.25
2023-02-17T14:26:30.762Z,100655.28
2023-02-17T14:29:05.038Z,100654.13
2023-02-17T14:31:40.838Z,100641.72
2023-02-17T14:34:16.034Z,100651.63
2023-02-17T14:36:45.395Z,100638.41
2023-02-17T14:39:17.035Z,100652.06
2023-02-17T14:41:46.870Z,100647.19
2023-02-17T14:44:18.933Z,100650.72
2023-02-17T14:46:48.390Z,100656.25
2023-02-17T14:49:17.812Z,100669.78
2023-02-17T14:51:47.273Z,100662.31
2023-02-17T14:54:19.108Z,100659.16
2023-02-17T14:56:55.010Z,100667.53
2023-02-17T14:59:27.005Z,100663.34
2023-02-17T15:01:56.648Z,100650.06
2023-02-17T15:04:26.255Z,100663.63
2023-02-17T15:06:56.722Z,100661.75
2023-02-17T15:09:31.751Z,100662.84
2023-02-17T15:12:02.804Z,100672.75
2023-02-17T15:14:34.839Z,100677.09
2023-02-17T15:17:04.292Z,100684.50
2023-02-17T15:19:33.713Z,100700.13
2023-02-17T15:22:03.762Z,100687.84
2023-02-17T15:24:36.195Z,100692.97
2023-02-17T15:27:06.840Z,100698.22
2023-02-17T15:29:38.758Z,100688.88
2023-02-17T15:32:18.941Z,100700.94
2023-02-17T15:34:48.715Z,100691.09
2023-02-17T15:37:18.113Z,100699.44
2023-02-17T15:39:47.520Z,100699.81
2023-02-17T15:42:17.392Z,100720.94
2023-02-17T15:44:52.032Z,100723.81
2023-02-17T15:47:23.250Z,100724.31
2023-02-17T15:49:52.738Z,100727.00
2023-02-17T15:52:22.081Z,100734.50
2023-02-17T15:54:51.463Z,100751.09
2023-02-17T15:57:24.924Z,100750.44
2023-02-17T15:59:57.795Z,100740.38
2023-02-17T16:02:28.308Z,100737.38
2023-02-17T16:04:57.677Z,100744.66
2023-02-17T16:07:27.177Z,100741.75
2023-02-17T16:09:56.620Z,100744.47
2023-02-17T16:12:27.298Z,100750.25
2023-02-17T16:15:00.275Z,100747.34
2023-02-17T16:17:29.699Z,100757.81
2023-02-17T16:19:59.130Z,100770.22
2023-02-17T16:22:30.189Z,100766.03
2023-02-17T16:24:59.632Z,100759.97
2023-02-17T16:27:29.298Z,100759.59
2023-02-17T16:30:01.427Z,100753.72
2023-02-17T16:32:32.725Z,100742.22
2023-02-17T16:35:03.293Z,100752.88
2023-02-17T16:37:32.765Z,100762.31
2023-02-17T16:40:02.186Z,100759.28
2023-02-17T16:42:31.640Z,100752.28
2023-02-17T16:45:03.788Z,100754.00
2023-02-17T16:47:33.471Z,100744.09
2023-02-17T16:50:11.306Z,100757.53
2023-02-17T16:52:40.860Z,100770.00
2023-02-17T16:55:10.432Z,100766.94
2023-02-17T16:57:39.876Z,100773.28
2023-02-17T17:00:14.580Z,100766.03
2023-02-17T17:02:44.283Z,100774.66
2023-02-17T17:05:15.006Z,100769.00
2023-02-17T17:07:45.029Z,100773.09
2023-02-17T17:10:17.603Z,100788.41
2023-02-17T17:12:47.442Z,100782.53
2023-02-17T17:15:19.850Z,100803.53
2023-02-17T17:17:53.312Z,100801.47
2023-02-17T17:20:27.950Z,100811.56
2023-02-17T17:22:57.444Z,100796.81
2023-02-17T17:25:27.068Z,100793.00
2023-02-17T17:27:56.588Z,100805.69
2023-02-17T17:30:31.700Z,100810.34
2023-02-17T17:33:01.770Z,100814.38
2023-02-17T17:35:32.789Z,100819.41
2023-02-17T17:38:02.238Z,100823.72
2023-02-17T17:40:48.159Z,100822.50
2023-02-17T17:43:18.768Z,100832.09
2023-02-17T17:45:51.824Z,100838.25
2023-02-17T17:48:21.586Z,100850.94
2023-02-17T17:50:51.981Z,100864.69
2023-02-17T17:53:21.345Z,100885.84
2023-02-17T17:55:50.845Z,100904.16
2023-02-17T17:58:21.269Z,100901.00
2023-02-17T18:00:54.627Z,100908.66
2023-02-17T18:03:24.043Z,100923.25
2023-02-17T18:05:53.736Z,100923.53
2023-02-17T18:08:23.234Z,100931.19
2023-02-17T18:10:52.905Z,100925.22
2023-02-17T18:13:22.961Z,100927.63
2023-02-17T18:15:55.967Z,100933.72
2023-02-17T18:18:26.134Z,100927.81
2023-02-17T18:20:55.533Z,100934.78
2023-02-17T18:23:25.543Z,100945.47
2023-02-17T18:25:54.947Z,100949.69
2023-02-17T18:28:24.498Z,100949.69
2023-02-17T18:30:57.107Z,100943.34
2023-02-17T18:33:26.639Z,100940.97
2023-02-17T18:35:56.086Z,100957.19
2023-02-17T18:38:25.457Z,100967.84
2023-02-17T18:40:57.093Z,100976.78
2023-02-17T18:43:29.281Z,100974.09
2023-02-17T18:46:06.854Z,100980.69
2023-02-17T18:48:37.039Z,100975.94
2023-02-17T18:51:08.928Z,100988.31
2023-02-17T18:53:40.710Z,100985.28
2023-02-17T18:56:28.937Z,100997.94
2023-02-17T18:58:59.213Z,100988.63
2023-02-17T19:01:33.448Z,100993.72
2023-02-17T19:04:04.889Z,101011.25
2023-02-17T19:06:35.998Z,101003.34
2023-02-17T19:09:06.427Z,101012.47
2023-02-17T19:11:37.425Z,101030.66
2023-02-17T19:14:07.360Z,101015.31
2023-02-17T19:16:40.904Z,101031.63
2023-02-17T19:19:10.302Z,101019.84
2023-02-17T19:21:39.724Z,101031.47
2023-02-17T19:24:09.560Z,101022.69
2023-02-17T19:26:39.450Z,101031.94
2023-02-17T19:29:08.843Z,101022.03
2023-02-17T19:31:41.449Z,101016.44
2023-02-17T19:34:10.941Z,101029.22
2023-02-17T19:36:40.316Z,101032.09
2023-02-17T19:39:09.676Z,101037.28
2023-02-17T19:41:39.073Z,101034.59
2023-02-17T19:44:09.880Z,101036.75
2023-02-17T19:46:42.214Z,101042.28
2023-02-17T19:49:11.755Z,101057.28
2023-02-17T19:51:41.214Z,101054.06
2023-02-17T19:54:10.732Z,101062.25
2023-02-17T19:56:40.309Z,101071.13
2023-02-17T19:59:09.733Z,101072.97
2023-02-17T20:01:43.302Z,101075.00
2023-02-17T20:04:13.383Z,101072.25
2023-02-17T20:06:45.650Z,101082.44
2023-02-17T20:09:18.957Z,101080.50
2023-02-17T20:11:49.844Z,101091.09
2023-02-17T20:14:19.241Z,101094.81
2023-02-17T20:16:53.274Z,101095.19
2023-02-17T20:19:22.687Z,101107.69
2023-02-17T20:21:52.103Z,101105.50
2023-02-17T20:24:21.507Z,101112.16
2023-02-17T20:26:53.694Z,101106.75
2023-02-17T20:29:23.271Z,101110.91
2023-02-17T20:31:55.358Z,101110.81
2023-02-17T20:34:31.223Z,101113.84
2023-02-17T20:37:01.648Z,101120.97
2023-02-17T20:39:31.345Z,101124.53
2023-02-17T20:42:00.814Z,101121.69
2023-02-17T20:44:30.834Z,101132.47
2023-02-17T20:47:02.935Z,101125.59
2023-02-17T20:49:32.342Z,101129.59
2023-02-17T20:52:01.796Z,101140.34
2023-02-17T20:54:31.203Z,101136.44
2023-02-17T20:57:01.132Z,101140.91
2023-02-17T20:59:30.752Z,101139.81
2023-02-17T21:02:02.744Z,101148.44
2023-02-17T21:04:32.149Z,101145.69
2023-02-17T21:07:01.627Z,101149.22
2023-02-17T21:09:31.234Z,101153.22
2023-02-17T21:12:00.640Z,101163.16
2023-02-17T21:14:30.092Z,101158.91
2023-02-17T21:16:59.499Z,101163.63
2023-02-17T21:19:32.966Z,101164.38
2023-02-17T21:22:02.408Z,101158.25
2023-02-17T21:24:31.835Z,101164.47
2023-02-17T21:27:01.276Z,101167.91
2023-02-17T21:29:30.799Z,101171.53
2023-02-17T21:32:00.285Z,101172.63
2023-02-17T21:34:32.268Z,101176.75
2023-02-17T21:37:01.671Z,101180.22
2023-02-17T21:39:31.150Z,101190.31
2023-02-17T21:42:00.625Z,101187.19
2023-02-17T21:44:42.589Z,101192.59
2023-02-17T21:47:12.251Z,101187.06
2023-02-17T21:49:44.289Z,101193.81
2023-02-17T21:52:13.767Z,101200.03
2023-02-17T21:54:43.281Z,101201.69
2023-02-17T21:57:12.677Z,101203.03
2023-02-17T21:59:42.658Z,101200.72
2023-02-17T22:02:13.486Z,101210.19
2023-02-17T22:04:45.536Z,101215.88
2023-02-17T22:07:14.882Z,101228.81
2023-02-17T22:09:44.267Z,101222.28
2023-02-17T22:12:13.618Z,101215.06
2023-02-17T22:14:42.988Z,101229.53
2023-02-17T22:17:12.323Z,101226.13
2023-02-17T22:19:41.763Z,101221.28
2023-02-17T22:22:13.671Z,101238.19
2023-02-17T22:24:43.050Z,101233.94
2023-02-17T22:27:12.404Z,101234.06
2023-02-17T22:29:41.856Z,101229.97
2023-02-17T22:32:11.322Z,101235.94
2023-02-17T22:34:40.744Z,101238.06
2023-02-17T22:37:12.717Z,101238.50
2023-02-17T22:39:42.068Z,101233.94
2023-02-17T22:42:11.392Z,101236.25
2023-02-17T22:44:40.791Z,101235.22
2023-02-17T22:47:10.169Z,101234.78
2023-02-17T22:49:39.588Z,101242.16
2023-02-17T22:52:09.396Z,101240.94
2023-02-17T22:54:41.530Z,101242.22
2023-02-17T22:57:10.902Z,101244.03
2023-02-17T22:59:40.337Z,101249.13
2023-02-17T23:02:09.728Z,101254.50
2023-02-17T23:04:39.136Z,101258.44
2023-02-17T23:07:08.528Z,101243.75
2023-02-17T23:09:37.904Z,101240.22
2023-02-17T23:12:10.052Z,101246.47
2023-02-17T23:14:42.181Z,101247.59
2023-02-17T23:17:13.739Z,101245.88
2023-02-17T23:19:44.242Z,101242.94
2023-02-17T23:22:16.661Z,101251.84
2023-02-17T23:24:46.344Z,101249.59
2023-02-17T23:27:18.314Z,101251.84
2023-02-17T23:29:47.673Z,101249.63
2023-02-17T23:32:17.061Z,101247.03
2023-02-17T23:34:46.490Z,101240.50
2023-02-17T23:37:15.871Z,101251.13
2023-02-17T23:39:45.246Z,101249.56
2023-02-17T23:42:14.596Z,101250.84
2023-02-17T23:44:46.657Z,101248.84
2023-02-17T23:47:16.042Z,101252.53
2023-02-17T23:49:45.378Z,101242.50
2023-02-17T23:52:14.810Z,101244.91
2023-02-17T23:54:44.525Z,101239.91
2023-02-17T23:57:13.895Z,101245.00
2023-02-17T23:59:45.882Z,101237.00
